Coe, Indiana
Current Conditions -  °F | °C
As of 8:15 AM on Thursday 27 Nov 2014 (Local Time) from KHNB Reporting Station
Overcast Overcast  
Wind Chill: 18°   Ceiling: 1800
Heat Index: 28°   Visibility: 8mi
Dew Point: 21°   Wind: 13mph
Humidity: 74%   Direction: 310°NW
Pressure: 30.37"   Gusts: 16mph
Location:  38.3488°N, 87.2217°W
Report Text: KHNB 271415Z AUTO 31011G14KT 8SM OVC018 M02/M06 A3037 RMK AO1
Loading
Personal Weather Stations






























Interactive Weather Map New forecast layout! Learn more

10-Day Weather Forecast

Advertisements
Track Severe Weather on mobile